This is the latest recevied weather packets stored in our database for station/object OE2SWM. If no packets are shown the sender has not sent any weather packets the latest 10 day(s).
| Time | Temp. | Humidity | Pressure | Rain* | Wind** | Luminosity | Snow |
|---|---|---|---|---|---|---|---|
| 1777962000 | 13.89° C | 60% | 966 hPa | 0 mm | - | - | - |
| 1777961400 | 12.78° C | 62% | 966 hPa | 0 mm | - | - | - |
| 1777960800 | 13.89° C | 65% | 966 hPa | 0 mm | - | - | - |
| 1777960200 | 11.67° C | 69% | 966 hPa | 0 mm | - | - | - |
| 1777959600 | 12.78° C | 64% | 966 hPa | 0 mm | - | - | - |
| 1777959000 | 15.56° C | 56% | 966 hPa | 0 mm | - | - | - |
| 1777958400 | 21.67° C | 44% | 966 hPa | 0 mm | - | - | - |
| 1777957800 | 21.67° C | 46% | 966 hPa | 0 mm | - | - | - |
| 1777957200 | 20° C | 48% | 966 hPa | 0 mm | - | - | - |
| 1777956600 | 17.78° C | 53% | 967 hPa | 0 mm | - | - | - |
| 1777956000 | 15° C | 58% | 967 hPa | 0 mm | - | - | - |
| 1777955400 | 11.67° C | 67% | 966 hPa | 0 mm | - | - | - |
| 1777954800 | 6.67° C | 87% | 966 hPa | 0 mm | - | - | - |
| 1777954200 | 5.56° C | 88% | 966 hPa | 0 mm | - | - | - |
| 1777953600 | 5.56° C | 89% | 967 hPa | 0 mm | - | - | - |
| 1777953000 | 5.56° C | 86% | 967 hPa | 0 mm | - | - | - |
| 1777952400 | 5.56° C | 86% | 967 hPa | 0 mm | - | - | - |
| 1777951800 | 5.56° C | 86% | 967 hPa | 0 mm | - | - | - |
| 1777951200 | 5.56° C | 85% | 967 hPa | 0 mm | - | - | - |
| 1777950600 | 5.56° C | 84% | 967 hPa | 0 mm | - | - | - |
| 1777950000 | 6.67° C | 85% | 967 hPa | 0 mm | - | - | - |
| 1777949400 | 6.67° C | 85% | 967 hPa | 0 mm | - | - | - |
| 1777948800 | 6.67° C | 86% | 967 hPa | 0 mm | - | - | - |
| 1777948200 | 6.67° C | 85% | 967 hPa | 0 mm | - | - | - |
| 1777947600 | 6.67° C | 85% | 967 hPa | 0 mm | - | - | - |
* Rain latest hour (hover to see other rain measurements)
** Current wind speed in m/s (hover to see current wind gust speed)